createdAt,value
2022-08-09T00:02:29.845Z,16.72
2022-08-09T00:07:44.864Z,16.71
2022-08-09T00:12:51.630Z,16.53
2022-08-09T00:18:05.399Z,16.40
2022-08-09T00:23:55.966Z,16.34
2022-08-09T00:28:37.416Z,16.38
2022-08-09T00:33:50.449Z,16.33
2022-08-09T00:38:54.510Z,16.25
2022-08-09T00:44:16.791Z,16.17
2022-08-09T00:49:20.673Z,16.15
2022-08-09T00:54:31.406Z,16.10
2022-08-09T00:59:47.147Z,15.95
2022-08-09T01:04:55.364Z,15.84
2022-08-09T01:09:59.245Z,15.79
2022-08-09T01:15:21.969Z,15.79
2022-08-09T01:20:26.222Z,15.73
2022-08-09T01:25:32.207Z,15.66
2022-08-09T01:30:52.093Z,15.62
2022-08-09T01:36:02.572Z,15.56
2022-08-09T01:41:15.933Z,15.51
2022-08-09T01:46:25.143Z,15.50
2022-08-09T01:51:44.547Z,15.52
2022-08-09T01:56:56.858Z,15.47
2022-08-09T02:02:01.297Z,15.43
2022-08-09T02:07:18.474Z,15.36
2022-08-09T02:12:34.972Z,15.25
2022-08-09T02:18:09.589Z,15.25
2022-08-09T02:23:02.084Z,15.31
2022-08-09T02:28:09.546Z,15.14
2022-08-09T02:33:14.198Z,15.07
2022-08-09T02:38:22.137Z,14.89
2022-08-09T02:43:53.835Z,14.80
2022-08-09T02:48:56.755Z,14.68
2022-08-09T02:54:01.000Z,14.56
2022-08-09T02:59:04.974Z,14.48
2022-08-09T03:04:16.727Z,14.46
2022-08-09T03:09:21.386Z,14.34
2022-08-09T03:14:28.335Z,14.25
2022-08-09T03:19:58.471Z,14.21
2022-08-09T03:25:16.166Z,14.19
2022-08-09T03:30:29.663Z,14.32
2022-08-09T03:35:44.397Z,14.27
2022-08-09T03:41:00.519Z,14.26
2022-08-09T03:46:19.961Z,14.10
2022-08-09T03:51:56.727Z,14.07
2022-08-09T03:56:52.471Z,14.18
2022-08-09T04:01:55.598Z,14.22
2022-08-09T04:06:59.183Z,14.19
2022-08-09T04:12:02.507Z,14.18
2022-08-09T04:17:13.636Z,14.20
2022-08-09T04:22:16.511Z,14.45
2022-08-09T04:27:21.977Z,14.53
2022-08-09T04:32:33.646Z,14.57
2022-08-09T04:37:42.068Z,14.79
2022-08-09T04:42:49.921Z,14.81
2022-08-09T04:48:00.893Z,15.17
2022-08-09T04:53:13.141Z,15.44
2022-08-09T04:58:17.137Z,15.59
2022-08-09T05:03:41.227Z,15.74
2022-08-09T05:08:43.900Z,15.76
2022-08-09T05:13:51.128Z,16.07
2022-08-09T05:18:59.900Z,16.32
2022-08-09T05:24:04.848Z,16.67
2022-08-09T05:29:17.705Z,16.52
2022-08-09T05:34:30.169Z,16.85
2022-08-09T05:39:35.738Z,16.92
2022-08-09T05:44:40.742Z,17.05
2022-08-09T05:50:29.862Z,17.45
2022-08-09T05:55:20.450Z,17.50
2022-08-09T06:00:23.887Z,17.51
2022-08-09T06:05:50.653Z,17.92
2022-08-09T06:10:49.756Z,17.97
2022-08-09T06:15:55.446Z,17.80
2022-08-09T06:20:59.618Z,18.66
2022-08-09T06:26:03.573Z,18.89
2022-08-09T06:31:07.201Z,18.98
2022-08-09T06:36:11.880Z,18.92
2022-08-09T06:41:19.142Z,19.39
2022-08-09T06:46:39.909Z,19.84
2022-08-09T06:51:45.879Z,19.87
2022-08-09T06:56:48.790Z,20.16
2022-08-09T07:01:57.911Z,20.25
2022-08-09T07:07:07.376Z,19.94
2022-08-09T07:12:18.218Z,20.96
2022-08-09T07:17:21.635Z,20.97
2022-08-09T07:22:34.649Z,21.30
2022-08-09T07:27:43.174Z,21.59
2022-08-09T07:32:57.313Z,20.71
2022-08-09T07:38:00.814Z,20.88
2022-08-09T07:43:04.066Z,20.85
2022-08-09T07:48:25.851Z,20.94
2022-08-09T07:54:04.402Z,21.27
2022-08-09T07:58:59.269Z,21.18
2022-08-09T08:04:02.513Z,21.07
2022-08-09T08:09:18.231Z,21.69
2022-08-09T08:14:28.956Z,21.81
2022-08-09T08:19:31.778Z,21.92
2022-08-09T08:24:40.300Z,21.81
2022-08-09T08:29:48.579Z,22.08
2022-08-09T08:34:55.400Z,21.99
2022-08-09T08:40:03.178Z,21.90
2022-08-09T08:45:11.939Z,21.81
2022-08-09T08:50:20.105Z,21.80
2022-08-09T08:55:24.576Z,22.32
2022-08-09T09:00:30.152Z,22.38
2022-08-09T09:06:00.875Z,22.19
2022-08-09T09:11:01.634Z,22.19
2022-08-09T09:16:04.848Z,22.48
2022-08-09T09:26:15.730Z,22.70
2022-08-09T09:32:03.491Z,22.77
2022-08-09T13:17:44.183Z,24.80
2022-08-09T13:23:00.993Z,24.75
2022-08-09T13:28:07.270Z,24.93
2022-08-09T13:33:11.841Z,24.90
2022-08-09T13:38:55.886Z,25.22
2022-08-09T13:43:43.486Z,25.15
2022-08-09T13:48:46.695Z,25.12
2022-08-09T13:53:51.788Z,25.09
2022-08-09T13:58:55.199Z,25.10
2022-08-09T14:04:04.992Z,25.07
2022-08-09T14:09:09.213Z,25.09
2022-08-09T14:14:23.936Z,25.13
2022-08-09T14:19:33.506Z,25.04
2022-08-09T14:24:36.524Z,25.14
2022-08-09T14:30:35.694Z,25.32
2022-08-09T14:35:14.145Z,25.08
2022-08-09T14:40:18.956Z,25.29
2022-08-09T14:46:57.492Z,25.24
2022-08-09T14:51:05.352Z,25.38
2022-08-09T14:56:08.530Z,25.29
2022-08-09T15:01:16.502Z,25.40
2022-08-09T15:06:23.195Z,25.50
2022-08-09T15:11:29.287Z,25.32
2022-08-09T15:16:33.086Z,25.42
2022-08-09T15:21:57.380Z,25.62
2022-08-09T15:26:59.889Z,25.36
2022-08-09T15:32:04.602Z,25.31
2022-08-09T15:37:38.218Z,25.26
2022-08-09T15:42:52.367Z,25.33
2022-08-09T15:48:05.357Z,25.02
2022-08-09T15:53:32.685Z,24.87
2022-08-09T15:58:34.293Z,24.59
2022-08-09T16:03:38.580Z,24.58
2022-08-09T16:08:48.987Z,24.39
2022-08-09T16:14:04.154Z,24.16
2022-08-09T16:19:10.275Z,24.25
2022-08-09T16:24:29.965Z,24.36
2022-08-09T16:29:50.558Z,24.23
2022-08-09T16:34:58.023Z,24.16
2022-08-09T16:40:05.315Z,24.02
2022-08-09T16:45:09.994Z,24.02
2022-08-09T16:50:31.299Z,23.89
2022-08-09T16:55:58.531Z,23.84
2022-08-09T17:00:59.530Z,23.85
2022-08-09T17:06:28.444Z,23.82
2022-08-09T17:11:41.020Z,23.67
2022-08-09T17:16:45.806Z,23.61
2022-08-09T17:21:48.974Z,23.51
2022-08-09T17:26:58.878Z,23.48
2022-08-09T17:32:02.674Z,23.38
2022-08-09T17:37:05.944Z,23.24
2022-08-09T17:42:41.181Z,23.17
2022-08-09T17:47:49.889Z,23.05
2022-08-09T17:52:58.223Z,22.93
2022-08-09T17:58:04.007Z,22.80
2022-08-09T18:03:09.280Z,22.64
2022-08-09T18:08:13.671Z,22.55
2022-08-09T18:13:43.354Z,22.45
2022-08-09T18:18:42.918Z,22.29
2022-08-09T18:24:11.587Z,22.12
2022-08-09T18:30:39.171Z,22.00
2022-08-09T18:34:35.725Z,21.77
2022-08-09T18:39:39.585Z,21.77
2022-08-09T18:44:45.250Z,21.61
2022-08-09T18:49:49.088Z,21.43
2022-08-09T18:54:55.474Z,21.20
2022-08-09T19:00:03.958Z,21.10
2022-08-09T19:05:19.599Z,21.00
2022-08-09T19:10:29.565Z,20.82
2022-08-09T19:15:41.841Z,20.75
2022-08-09T19:20:56.801Z,20.71
2022-08-09T19:26:05.370Z,20.60
2022-08-09T19:31:08.753Z,20.46
2022-08-09T19:36:13.505Z,20.48
2022-08-09T19:41:32.722Z,20.36
2022-08-09T19:52:49.367Z,20.12
2022-08-09T19:57:55.316Z,20.01
2022-08-09T20:04:12.489Z,20.02
2022-08-09T20:08:25.061Z,19.95
2022-08-09T20:13:37.976Z,19.79
2022-08-09T20:19:04.147Z,19.69
2022-08-09T20:24:07.756Z,19.62
2022-08-09T20:29:18.916Z,19.58
2022-08-09T20:34:23.864Z,19.61
2022-08-09T20:40:15.115Z,19.57
2022-08-09T20:45:04.604Z,19.40
2022-08-09T20:50:15.597Z,19.37
2022-08-09T20:55:47.119Z,19.30
2022-08-09T21:01:32.816Z,19.21
2022-08-09T21:06:25.489Z,19.15
2022-08-09T21:16:57.923Z,18.93
2022-08-09T21:22:02.679Z,18.67
2022-08-09T21:27:51.372Z,18.61
2022-08-09T21:32:33.245Z,18.58
2022-08-09T21:37:40.593Z,18.54
2022-08-09T21:43:00.754Z,18.53
2022-08-09T21:48:03.700Z,18.21
2022-08-09T21:53:15.607Z,18.14
2022-08-09T21:58:31.257Z,18.04
2022-08-09T22:03:36.771Z,17.98
2022-08-09T22:08:52.682Z,17.94
2022-08-09T22:13:57.135Z,18.03
2022-08-09T22:19:03.475Z,18.05
2022-08-09T22:24:27.069Z,17.92
2022-08-09T22:29:38.535Z,17.84
2022-08-09T22:35:02.235Z,17.73
2022-08-09T22:40:10.858Z,17.71
2022-08-09T22:48:14.396Z,17.72
2022-08-09T22:50:53.020Z,17.58
2022-08-09T22:56:30.171Z,17.53
2022-08-09T23:01:20.815Z,17.45
2022-08-09T23:06:30.012Z,17.43
2022-08-09T23:11:39.614Z,17.44
2022-08-09T23:16:42.911Z,17.64
2022-08-09T23:21:46.891Z,17.43
2022-08-09T23:26:50.596Z,17.36
2022-08-09T23:31:54.608Z,17.29
2022-08-09T23:36:58.409Z,17.17
2022-08-09T23:42:02.051Z,17.33
2022-08-09T23:47:05.896Z,17.06
2022-08-09T23:52:09.473Z,16.76
2022-08-09T23:57:15.874Z,16.83
